Neilburg, Canada
Current Conditions -  °F | °C
As of 10:00 AM on Friday 21 Nov 2014 (Local Time) from CYLL Reporting Station
Light Rain Light Rain  
Wind Chill: 29°   Ceiling: 700
Heat Index: 37°   Visibility: 6mi
Dew Point: 36°   Wind: 15mph
Humidity: 93%   Direction: 280°W
Pressure: 29.45"   Gusts: NA
Location:  52.83°N, 109.63°W
Report Text: CYLL 211600Z 28013KT 6SM -RA BR BKN007 OVC028 03/02 A2945 RMK SC5SC3 SLP000
Loading
Personal Weather Stations






























Interactive Weather Map New forecast layout! Learn more

10-Day Weather Forecast

Advertisements
Track Severe Weather on mobile